createdAt,value
2023-04-01T00:01:33.854Z,3240
2023-04-01T00:07:04.324Z,3272
2023-04-01T00:12:34.797Z,3304
2023-04-01T00:18:05.405Z,3334
2023-04-01T00:23:35.859Z,3366
2023-04-01T00:29:06.347Z,3391
2023-04-01T00:34:35.840Z,3406
2023-04-01T00:40:06.329Z,3415
2023-04-01T00:45:36.900Z,3525
2023-04-01T00:52:13.514Z,3489
2023-04-01T00:57:44.002Z,3528
2023-04-01T01:03:14.646Z,3512
2023-04-01T01:08:45.064Z,3518
2023-04-01T01:14:15.663Z,3547
2023-04-01T01:19:46.219Z,3573
2023-04-01T01:25:16.748Z,3600
2023-04-01T01:36:16.805Z,3668
2023-04-01T01:41:47.311Z,3686
2023-04-01T01:47:17.824Z,3684
2023-04-01T01:52:48.275Z,3700
2023-04-01T01:58:18.961Z,3722
2023-04-01T02:03:49.475Z,3750
2023-04-01T02:09:20.019Z,3778
2023-04-01T02:14:50.511Z,3806
2023-04-01T02:20:20.958Z,3794
2023-04-01T02:25:50.481Z,3817
2023-04-01T02:31:20.964Z,3853
2023-04-01T02:36:51.434Z,3865
2023-04-01T02:42:20.883Z,3885
2023-04-01T02:47:51.440Z,3915
2023-04-01T02:53:21.853Z,3936
2023-04-01T02:58:52.567Z,3943
2023-04-01T03:04:23.042Z,3976
2023-04-01T03:09:53.863Z,3993
2023-04-01T03:15:24.133Z,4021
2023-04-01T03:20:54.605Z,4052
2023-04-01T03:26:25.221Z,4045
2023-04-01T03:31:55.659Z,4080
2023-04-01T03:37:26.146Z,4122
2023-04-01T03:42:56.776Z,4153
2023-04-01T03:48:27.222Z,4191
2023-04-01T03:53:58.019Z,4207
2023-04-01T04:00:34.504Z,4225
2023-04-01T04:06:04.984Z,4233
2023-04-01T04:11:35.569Z,4251
2023-04-01T04:17:06.054Z,4266
2023-04-01T04:22:36.628Z,4300
2023-04-01T04:28:07.113Z,4326
2023-04-01T04:33:37.585Z,4343
2023-04-01T04:39:07.054Z,4371
2023-04-01T04:44:37.513Z,4403
2023-04-01T04:50:08.011Z,4424
2023-04-01T04:55:37.498Z,4466
2023-04-01T05:01:08.273Z,4508
2023-04-01T05:06:38.450Z,4467
2023-04-01T05:12:09.002Z,4466
2023-04-01T05:17:39.550Z,4454
2023-04-01T05:23:10.130Z,2666
2023-04-01T05:28:40.581Z,2169
2023-04-01T05:34:11.033Z,2107
2023-04-01T05:39:40.560Z,1859
2023-04-01T05:45:11.015Z,1813
2023-04-01T05:50:41.488Z,1724
2023-04-01T05:56:11.009Z,1636
2023-04-01T06:01:41.459Z,1499
2023-04-01T06:07:12.033Z,1547
2023-04-01T06:12:42.521Z,1364
2023-04-01T06:18:13.059Z,1388
2023-04-01T06:23:42.512Z,1280
2023-04-01T06:29:12.987Z,1250
2023-04-01T06:34:43.449Z,1130
2023-04-01T06:40:14.049Z,855
2023-04-01T06:45:44.586Z,809
2023-04-01T06:51:15.128Z,779
2023-04-01T06:56:45.609Z,748
2023-04-01T07:02:16.251Z,740
2023-04-01T07:07:45.713Z,841
2023-04-01T07:13:16.189Z,855
2023-04-01T07:18:46.687Z,864
2023-04-01T07:24:17.143Z,870
2023-04-01T07:29:47.756Z,882
2023-04-01T07:35:18.240Z,886
2023-04-01T07:40:48.848Z,828
2023-04-01T07:46:19.416Z,840
2023-04-01T07:51:49.996Z,842
2023-04-01T07:57:19.365Z,817
2023-04-01T08:02:50.176Z,815
2023-04-01T08:08:20.302Z,807
2023-04-01T08:13:50.902Z,816
2023-04-01T08:19:21.375Z,805
2023-04-01T08:24:51.839Z,803
2023-04-01T08:30:21.340Z,793
2023-04-01T08:35:51.866Z,816
2023-04-01T08:41:22.283Z,805
2023-04-01T08:46:51.872Z,818
2023-04-01T08:52:22.380Z,817
2023-04-01T08:57:54.659Z,818
2023-04-01T09:03:22.441Z,829
2023-04-01T09:08:52.992Z,858
2023-04-01T09:14:23.558Z,871
2023-04-01T09:19:54.175Z,860
2023-04-01T09:25:24.657Z,859
2023-04-01T09:30:55.171Z,862
2023-04-01T09:36:24.636Z,861
2023-04-01T09:41:55.130Z,857
2023-04-01T09:47:25.601Z,853
2023-04-01T09:54:02.387Z,847
2023-04-01T09:59:32.869Z,843
2023-04-01T10:05:03.477Z,836
2023-04-01T10:10:33.962Z,818
2023-04-01T10:21:35.017Z,824
2023-04-01T10:27:05.509Z,825
2023-04-01T10:32:36.025Z,824
2023-04-01T10:38:06.608Z,821
2023-04-01T10:43:37.176Z,817
2023-04-01T10:49:07.782Z,806
2023-04-01T10:54:38.231Z,807
2023-04-01T11:00:08.693Z,806
2023-04-01T11:05:39.330Z,799
2023-04-01T11:11:09.801Z,796
2023-04-01T11:16:40.295Z,792
2023-04-01T11:22:10.874Z,798
2023-04-01T11:27:41.345Z,796
2023-04-01T11:33:11.869Z,779
2023-04-01T11:38:41.348Z,757
2023-04-01T11:44:11.807Z,780
2023-04-01T11:49:42.271Z,793
2023-04-01T11:55:12.878Z,796
2023-04-01T12:00:43.425Z,802
2023-04-01T12:06:12.905Z,804
2023-04-01T12:11:43.406Z,811
2023-04-01T12:17:13.853Z,816
2023-04-01T12:22:44.346Z,823
2023-04-01T12:28:14.926Z,840
2023-04-01T12:33:45.399Z,851
2023-04-01T12:39:15.994Z,848
2023-04-01T12:44:46.599Z,852
2023-04-01T12:50:17.197Z,856
2023-04-01T12:56:53.808Z,848
2023-04-01T13:02:24.379Z,846
2023-04-01T13:07:54.852Z,847
2023-04-01T13:13:25.330Z,853
2023-04-01T13:18:55.907Z,886
2023-04-01T13:24:26.409Z,898
2023-04-01T13:29:56.891Z,904
2023-04-01T13:35:27.496Z,915
2023-04-01T13:41:03.624Z,926
2023-04-01T13:46:28.513Z,937
2023-04-01T13:51:59.028Z,942
2023-04-01T13:57:29.642Z,960
2023-04-01T14:03:00.125Z,954
2023-04-01T14:08:30.632Z,957
2023-04-01T14:14:01.086Z,975
2023-04-01T14:19:31.601Z,979
2023-04-01T14:25:02.200Z,990
2023-04-01T14:30:32.626Z,1001
2023-04-01T14:36:03.207Z,1012
2023-04-01T14:41:33.766Z,1022
2023-04-01T14:47:04.348Z,1027
2023-04-01T14:52:33.808Z,1033
2023-04-01T14:58:04.239Z,1049
2023-04-01T15:03:34.817Z,1058
2023-04-01T15:09:04.202Z,1071
2023-04-01T15:14:34.685Z,1068
2023-04-01T15:20:05.150Z,1077
2023-04-01T15:25:34.941Z,1096
2023-04-01T15:31:05.140Z,1104
2023-04-01T15:36:35.695Z,1113
2023-04-01T15:42:07.616Z,1125
2023-04-01T15:47:36.782Z,1146
2023-04-01T15:53:06.141Z,1155
2023-04-01T15:58:36.620Z,1170
2023-04-01T16:04:07.337Z,1181
2023-04-01T16:09:37.668Z,1185
2023-04-01T16:15:08.180Z,1197
2023-04-01T16:20:38.781Z,1205
2023-04-01T16:26:09.266Z,1218
2023-04-01T16:31:38.783Z,1221
2023-04-01T16:37:09.204Z,1223
2023-04-01T16:42:39.654Z,1220
2023-04-01T16:48:10.268Z,1225
2023-04-01T16:53:40.832Z,1220
2023-04-01T16:59:11.225Z,1237
2023-04-01T17:04:42.021Z,1236
2023-04-01T17:10:12.311Z,1250
2023-04-01T17:15:43.010Z,1256
2023-04-01T17:21:12.420Z,1264
2023-04-01T17:26:42.931Z,1269
2023-04-01T17:32:13.486Z,1275
2023-04-01T17:37:43.961Z,1276
2023-04-01T17:43:14.453Z,1281
2023-04-01T17:48:45.030Z,1295
2023-04-01T17:54:15.618Z,1306
2023-04-01T17:59:46.108Z,1314
2023-04-01T18:05:15.588Z,1321
2023-04-01T18:10:46.074Z,1324
2023-04-01T18:16:16.597Z,1335
2023-04-01T18:21:47.123Z,1343
2023-04-01T18:27:17.608Z,1343
2023-04-01T18:32:47.120Z,1350
2023-04-01T18:38:17.590Z,1350
2023-04-01T18:43:48.038Z,1355
2023-04-01T18:49:17.532Z,1375
2023-04-01T18:54:48.020Z,1377
2023-04-01T19:00:18.505Z,1370
2023-04-01T19:05:49.092Z,1471
2023-04-01T19:11:19.641Z,1514
2023-04-01T19:16:50.175Z,1555
2023-04-01T19:22:20.650Z,1594
2023-04-01T19:27:51.115Z,1658
2023-04-01T19:33:21.785Z,1680
2023-04-01T19:38:52.192Z,1792
2023-04-01T19:44:22.668Z,1818
2023-04-01T19:49:53.247Z,1840
2023-04-01T19:55:23.760Z,1797
2023-04-01T20:00:54.365Z,1843
2023-04-01T20:06:24.819Z,1874
2023-04-01T20:11:55.418Z,1898
2023-04-01T20:17:25.951Z,1812
2023-04-01T20:22:56.394Z,1827
2023-04-01T20:28:25.903Z,1845
2023-04-01T20:33:56.380Z,1854
2023-04-01T20:39:26.838Z,1867
2023-04-01T20:44:56.327Z,1865
2023-04-01T20:50:26.812Z,1903
2023-04-01T20:55:57.290Z,1931
2023-04-01T21:01:27.900Z,1934
2023-04-01T21:06:58.430Z,1944
2023-04-01T21:12:29.018Z,1930
2023-04-01T21:17:59.546Z,1934
2023-04-01T21:23:29.962Z,1935
2023-04-01T21:29:00.550Z,1950
2023-04-01T21:34:31.032Z,1954
2023-04-01T21:40:01.483Z,1984
2023-04-01T21:45:31.014Z,1993
2023-04-01T21:51:01.557Z,1994
2023-04-01T21:56:32.171Z,2006
2023-04-01T22:02:02.705Z,2000
2023-04-01T22:07:33.119Z,2001
2023-04-01T22:13:03.720Z,2000
2023-04-01T22:18:34.196Z,2013
2023-04-01T22:24:03.945Z,2025
2023-04-01T22:29:34.291Z,1950
2023-04-01T22:35:04.752Z,1936
2023-04-01T22:40:34.266Z,1950
2023-04-01T22:46:04.756Z,1954
2023-04-01T22:51:35.259Z,1957
2023-04-01T22:57:04.746Z,1959
2023-04-01T23:02:35.228Z,1967
2023-04-01T23:08:04.670Z,1991
2023-04-01T23:13:35.146Z,2061
2023-04-01T23:19:05.629Z,1933
2023-04-01T23:25:41.207Z,1867
2023-04-01T23:31:11.728Z,1823
2023-04-01T23:36:41.209Z,1837
2023-04-01T23:42:11.670Z,1769
2023-04-01T23:47:42.354Z,1811
2023-04-01T23:53:11.910Z,1810
2023-04-01T23:58:42.398Z,1798
